sensor_id;sensor_type;location;lat;lon;timestamp;temperature;humidity
32815;DHT22;19165;48.182;16.374;2022-09-01T00:01:34;20.50;55.60
32815;DHT22;19165;48.182;16.374;2022-09-01T00:04:02;20.60;55.50
32815;DHT22;19165;48.182;16.374;2022-09-01T00:06:31;20.60;55.50
32815;DHT22;19165;48.182;16.374;2022-09-01T00:09:00;20.70;55.50
32815;DHT22;19165;48.182;16.374;2022-09-01T00:11:27;20.60;55.10
32815;DHT22;19165;48.182;16.374;2022-09-01T00:13:55;20.60;55.60
32815;DHT22;19165;48.182;16.374;2022-09-01T00:16:22;20.60;55.20
32815;DHT22;19165;48.182;16.374;2022-09-01T00:18:51;20.70;55.20
32815;DHT22;19165;48.182;16.374;2022-09-01T00:21:22;20.70;55.30
32815;DHT22;19165;48.182;16.374;2022-09-01T00:23:49;20.70;55.50
32815;DHT22;19165;48.182;16.374;2022-09-01T00:26:15;20.70;55.30
32815;DHT22;19165;48.182;16.374;2022-09-01T00:28:41;20.70;55.60
32815;DHT22;19165;48.182;16.374;2022-09-01T00:31:08;20.60;55.40
32815;DHT22;19165;48.182;16.374;2022-09-01T00:33:37;20.60;55.50
32815;DHT22;19165;48.182;16.374;2022-09-01T00:36:04;20.50;55.50
32815;DHT22;19165;48.182;16.374;2022-09-01T00:38:30;20.50;55.60
32815;DHT22;19165;48.182;16.374;2022-09-01T00:40:57;20.50;55.70
32815;DHT22;19165;48.182;16.374;2022-09-01T00:43:36;20.50;55.70
32815;DHT22;19165;48.182;16.374;2022-09-01T00:46:03;20.50;55.70
32815;DHT22;19165;48.182;16.374;2022-09-01T00:48:29;20.40;55.80
32815;DHT22;19165;48.182;16.374;2022-09-01T00:50:57;20.40;55.90
32815;DHT22;19165;48.182;16.374;2022-09-01T00:53:23;20.40;55.90
32815;DHT22;19165;48.182;16.374;2022-09-01T00:55:50;20.40;56.00
32815;DHT22;19165;48.182;16.374;2022-09-01T00:58:16;20.30;56.10
32815;DHT22;19165;48.182;16.374;2022-09-01T01:00:42;20.30;56.20
32815;DHT22;19165;48.182;16.374;2022-09-01T01:03:10;20.30;56.20
32815;DHT22;19165;48.182;16.374;2022-09-01T01:05:39;20.30;56.40
32815;DHT22;19165;48.182;16.374;2022-09-01T01:08:08;20.20;56.60
32815;DHT22;19165;48.182;16.374;2022-09-01T01:10:39;20.20;56.70
32815;DHT22;19165;48.182;16.374;2022-09-01T01:13:09;20.10;56.80
32815;DHT22;19165;48.182;16.374;2022-09-01T01:15:35;20.10;56.90
32815;DHT22;19165;48.182;16.374;2022-09-01T01:18:01;20.10;56.90
32815;DHT22;19165;48.182;16.374;2022-09-01T01:20:30;20.20;56.90
32815;DHT22;19165;48.182;16.374;2022-09-01T01:23:21;20.10;56.90
32815;DHT22;19165;48.182;16.374;2022-09-01T01:25:53;20.10;56.90
32815;DHT22;19165;48.182;16.374;2022-09-01T01:28:21;20.10;56.80
32815;DHT22;19165;48.182;16.374;2022-09-01T01:30:53;20.00;56.90
32815;DHT22;19165;48.182;16.374;2022-09-01T01:33:21;20.00;56.80
32815;DHT22;19165;48.182;16.374;2022-09-01T01:35:48;20.00;56.70
32815;DHT22;19165;48.182;16.374;2022-09-01T01:38:16;20.00;56.70
32815;DHT22;19165;48.182;16.374;2022-09-01T01:40:44;20.00;56.60
32815;DHT22;19165;48.182;16.374;2022-09-01T01:43:11;20.00;56.60
32815;DHT22;19165;48.182;16.374;2022-09-01T01:45:47;20.00;56.50
32815;DHT22;19165;48.182;16.374;2022-09-01T01:48:17;20.00;56.50
32815;DHT22;19165;48.182;16.374;2022-09-01T01:50:48;20.00;56.50
32815;DHT22;19165;48.182;16.374;2022-09-01T01:53:14;19.90;56.40
32815;DHT22;19165;48.182;16.374;2022-09-01T01:55:42;19.90;56.50
32815;DHT22;19165;48.182;16.374;2022-09-01T01:58:08;19.90;56.70
32815;DHT22;19165;48.182;16.374;2022-09-01T02:00:38;19.80;56.70
32815;DHT22;19165;48.182;16.374;2022-09-01T02:03:04;19.80;56.80
32815;DHT22;19165;48.182;16.374;2022-09-01T02:05:34;19.70;56.80
32815;DHT22;19165;48.182;16.374;2022-09-01T02:08:04;19.70;56.90
32815;DHT22;19165;48.182;16.374;2022-09-01T02:10:32;19.70;56.80
32815;DHT22;19165;48.182;16.374;2022-09-01T02:12:59;19.70;56.80
32815;DHT22;19165;48.182;16.374;2022-09-01T02:15:33;19.70;57.00
32815;DHT22;19165;48.182;16.374;2022-09-01T02:18:11;19.70;57.10
32815;DHT22;19165;48.182;16.374;2022-09-01T02:20:39;19.70;57.40
32815;DHT22;19165;48.182;16.374;2022-09-01T02:23:06;19.60;57.40
32815;DHT22;19165;48.182;16.374;2022-09-01T02:25:41;19.60;57.50
32815;DHT22;19165;48.182;16.374;2022-09-01T02:28:09;19.60;57.60
32815;DHT22;19165;48.182;16.374;2022-09-01T02:30:41;19.60;57.50
32815;DHT22;19165;48.182;16.374;2022-09-01T02:33:08;19.70;57.50
32815;DHT22;19165;48.182;16.374;2022-09-01T02:35:35;19.70;57.50
32815;DHT22;19165;48.182;16.374;2022-09-01T02:38:03;19.70;57.60
32815;DHT22;19165;48.182;16.374;2022-09-01T02:40:30;19.70;57.60
32815;DHT22;19165;48.182;16.374;2022-09-01T02:42:56;19.70;57.50
32815;DHT22;19165;48.182;16.374;2022-09-01T02:45:25;19.80;57.30
32815;DHT22;19165;48.182;16.374;2022-09-01T02:47:51;19.80;57.00
32815;DHT22;19165;48.182;16.374;2022-09-01T02:50:20;19.80;56.90
32815;DHT22;19165;48.182;16.374;2022-09-01T02:52:47;19.80;56.90
32815;DHT22;19165;48.182;16.374;2022-09-01T02:55:15;19.90;56.70
32815;DHT22;19165;48.182;16.374;2022-09-01T02:57:45;19.90;56.50
32815;DHT22;19165;48.182;16.374;2022-09-01T03:00:14;20.00;56.40
32815;DHT22;19165;48.182;16.374;2022-09-01T03:03:06;20.00;56.20
32815;DHT22;19165;48.182;16.374;2022-09-01T03:05:34;20.00;56.00
32815;DHT22;19165;48.182;16.374;2022-09-01T03:08:07;20.00;55.90
32815;DHT22;19165;48.182;16.374;2022-09-01T03:10:38;20.00;55.90
32815;DHT22;19165;48.182;16.374;2022-09-01T03:13:09;20.00;55.80
32815;DHT22;19165;48.182;16.374;2022-09-01T03:15:36;20.00;55.80
32815;DHT22;19165;48.182;16.374;2022-09-01T03:18:05;20.10;55.70
32815;DHT22;19165;48.182;16.374;2022-09-01T03:20:34;20.10;55.70
32815;DHT22;19165;48.182;16.374;2022-09-01T03:23:03;20.10;56.00
32815;DHT22;19165;48.182;16.374;2022-09-01T03:25:32;20.10;56.20
32815;DHT22;19165;48.182;16.374;2022-09-01T03:27:59;20.00;56.20
32815;DHT22;19165;48.182;16.374;2022-09-01T03:30:28;20.00;56.70
32815;DHT22;19165;48.182;16.374;2022-09-01T03:32:55;20.00;56.90
32815;DHT22;19165;48.182;16.374;2022-09-01T03:35:21;20.00;57.00
32815;DHT22;19165;48.182;16.374;2022-09-01T03:37:49;19.90;57.20
32815;DHT22;19165;48.182;16.374;2022-09-01T03:40:16;20.00;57.30
32815;DHT22;19165;48.182;16.374;2022-09-01T03:42:43;19.90;56.90
32815;DHT22;19165;48.182;16.374;2022-09-01T03:45:11;20.00;56.80
32815;DHT22;19165;48.182;16.374;2022-09-01T03:47:41;20.00;56.70
32815;DHT22;19165;48.182;16.374;2022-09-01T03:50:10;20.00;56.40
32815;DHT22;19165;48.182;16.374;2022-09-01T03:52:46;20.00;56.20
32815;DHT22;19165;48.182;16.374;2022-09-01T03:55:15;20.00;56.30
32815;DHT22;19165;48.182;16.374;2022-09-01T03:57:49;19.90;56.30
32815;DHT22;19165;48.182;16.374;2022-09-01T04:00:16;20.00;56.30
32815;DHT22;19165;48.182;16.374;2022-09-01T04:02:46;20.00;56.40
32815;DHT22;19165;48.182;16.374;2022-09-01T04:05:14;20.00;56.50
32815;DHT22;19165;48.182;16.374;2022-09-01T04:07:40;19.90;56.40
32815;DHT22;19165;48.182;16.374;2022-09-01T04:10:07;19.90;56.60
32815;DHT22;19165;48.182;16.374;2022-09-01T04:12:37;20.00;56.60
32815;DHT22;19165;48.182;16.374;2022-09-01T04:15:05;20.00;56.60
32815;DHT22;19165;48.182;16.374;2022-09-01T04:17:35;20.00;56.60
32815;DHT22;19165;48.182;16.374;2022-09-01T04:20:20;20.00;56.50
32815;DHT22;19165;48.182;16.374;2022-09-01T04:22:47;20.00;56.50
32815;DHT22;19165;48.182;16.374;2022-09-01T04:25:15;19.90;56.50
32815;DHT22;19165;48.182;16.374;2022-09-01T04:27:43;19.90;56.60
32815;DHT22;19165;48.182;16.374;2022-09-01T04:30:12;19.90;56.80
32815;DHT22;19165;48.182;16.374;2022-09-01T04:32:42;19.90;56.70
32815;DHT22;19165;48.182;16.374;2022-09-01T04:35:12;19.90;57.20
32815;DHT22;19165;48.182;16.374;2022-09-01T04:37:43;19.90;56.50
32815;DHT22;19165;48.182;16.374;2022-09-01T04:40:12;19.90;56.30
32815;DHT22;19165;48.182;16.374;2022-09-01T04:42:39;19.90;56.40
32815;DHT22;19165;48.182;16.374;2022-09-01T04:45:10;20.00;56.30
32815;DHT22;19165;48.182;16.374;2022-09-01T04:47:40;20.00;56.30
32815;DHT22;19165;48.182;16.374;2022-09-01T04:50:14;20.00;56.20
32815;DHT22;19165;48.182;16.374;2022-09-01T04:53:02;20.10;55.90
32815;DHT22;19165;48.182;16.374;2022-09-01T04:55:33;20.20;55.50
32815;DHT22;19165;48.182;16.374;2022-09-01T04:58:02;20.30;55.40
32815;DHT22;19165;48.182;16.374;2022-09-01T05:00:30;20.40;55.00
32815;DHT22;19165;48.182;16.374;2022-09-01T05:02:59;20.40;54.90
32815;DHT22;19165;48.182;16.374;2022-09-01T05:05:41;20.50;54.60
32815;DHT22;19165;48.182;16.374;2022-09-01T05:08:09;20.50;54.20
32815;DHT22;19165;48.182;16.374;2022-09-01T05:10:39;20.60;54.20
32815;DHT22;19165;48.182;16.374;2022-09-01T05:13:18;20.60;53.90
32815;DHT22;19165;48.182;16.374;2022-09-01T05:15:47;20.70;54.00
32815;DHT22;19165;48.182;16.374;2022-09-01T05:18:14;20.70;53.90
32815;DHT22;19165;48.182;16.374;2022-09-01T05:20:41;20.80;53.60
32815;DHT22;19165;48.182;16.374;2022-09-01T05:23:09;20.90;53.40
32815;DHT22;19165;48.182;16.374;2022-09-01T05:25:39;20.90;53.20
32815;DHT22;19165;48.182;16.374;2022-09-01T05:28:07;21.10;53.00
32815;DHT22;19165;48.182;16.374;2022-09-01T05:30:35;21.10;52.60
32815;DHT22;19165;48.182;16.374;2022-09-01T05:33:03;21.10;52.30
32815;DHT22;19165;48.182;16.374;2022-09-01T05:35:35;21.10;52.70
32815;DHT22;19165;48.182;16.374;2022-09-01T05:38:02;21.10;52.20
32815;DHT22;19165;48.182;16.374;2022-09-01T05:40:28;21.20;51.80
32815;DHT22;19165;48.182;16.374;2022-09-01T05:42:54;21.30;51.50
32815;DHT22;19165;48.182;16.374;2022-09-01T05:45:20;21.40;51.40
32815;DHT22;19165;48.182;16.374;2022-09-01T05:47:49;21.40;51.00
32815;DHT22;19165;48.182;16.374;2022-09-01T05:50:16;21.50;50.40
32815;DHT22;19165;48.182;16.374;2022-09-01T05:52:44;21.50;50.30
32815;DHT22;19165;48.182;16.374;2022-09-01T05:55:13;21.50;49.90
32815;DHT22;19165;48.182;16.374;2022-09-01T05:57:41;21.60;49.60
32815;DHT22;19165;48.182;16.374;2022-09-01T06:00:08;21.60;49.40
32815;DHT22;19165;48.182;16.374;2022-09-01T06:02:39;21.60;49.40
32815;DHT22;19165;48.182;16.374;2022-09-01T06:05:05;21.50;49.40
32815;DHT22;19165;48.182;16.374;2022-09-01T06:07:33;21.60;49.20
32815;DHT22;19165;48.182;16.374;2022-09-01T06:10:03;21.60;49.20
32815;DHT22;19165;48.182;16.374;2022-09-01T06:12:30;21.70;49.10
32815;DHT22;19165;48.182;16.374;2022-09-01T06:14:56;21.80;48.90
32815;DHT22;19165;48.182;16.374;2022-09-01T06:17:24;21.90;48.80
32815;DHT22;19165;48.182;16.374;2022-09-01T06:19:51;21.90;48.40
32815;DHT22;19165;48.182;16.374;2022-09-01T06:22:18;21.90;48.40
32815;DHT22;19165;48.182;16.374;2022-09-01T06:24:46;22.00;48.40
32815;DHT22;19165;48.182;16.374;2022-09-01T06:27:13;22.10;47.90
32815;DHT22;19165;48.182;16.374;2022-09-01T06:29:43;22.20;47.60
32815;DHT22;19165;48.182;16.374;2022-09-01T06:32:10;22.30;47.30
32815;DHT22;19165;48.182;16.374;2022-09-01T06:34:38;22.40;47.30
32815;DHT22;19165;48.182;16.374;2022-09-01T06:37:07;22.50;47.20
32815;DHT22;19165;48.182;16.374;2022-09-01T06:39:33;22.70;46.90
32815;DHT22;19165;48.182;16.374;2022-09-01T06:42:00;22.90;46.30
32815;DHT22;19165;48.182;16.374;2022-09-01T06:44:38;23.10;45.90
32815;DHT22;19165;48.182;16.374;2022-09-01T06:47:06;23.40;45.00
32815;DHT22;19165;48.182;16.374;2022-09-01T06:49:33;23.60;44.50
32815;DHT22;19165;48.182;16.374;2022-09-01T06:52:05;23.80;44.10
32815;DHT22;19165;48.182;16.374;2022-09-01T06:54:32;23.90;43.80
32815;DHT22;19165;48.182;16.374;2022-09-01T06:57:00;24.10;43.50
32815;DHT22;19165;48.182;16.374;2022-09-01T06:59:29;24.30;43.10
32815;DHT22;19165;48.182;16.374;2022-09-01T07:01:57;24.50;42.30
32815;DHT22;19165;48.182;16.374;2022-09-01T07:04:30;24.60;42.10
32815;DHT22;19165;48.182;16.374;2022-09-01T07:07:01;24.90;41.70
32815;DHT22;19165;48.182;16.374;2022-09-01T07:09:47;25.00;41.10
32815;DHT22;19165;48.182;16.374;2022-09-01T07:12:27;25.10;40.90
32815;DHT22;19165;48.182;16.374;2022-09-01T07:14:54;25.30;40.30
32815;DHT22;19165;48.182;16.374;2022-09-01T07:17:21;25.50;40.10
32815;DHT22;19165;48.182;16.374;2022-09-01T07:19:48;25.70;39.80
32815;DHT22;19165;48.182;16.374;2022-09-01T07:22:14;26.00;39.60
32815;DHT22;19165;48.182;16.374;2022-09-01T07:24:44;26.20;38.70
32815;DHT22;19165;48.182;16.374;2022-09-01T07:27:34;26.30;38.80
32815;DHT22;19165;48.182;16.374;2022-09-01T07:30:01;26.60;38.40
32815;DHT22;19165;48.182;16.374;2022-09-01T07:32:28;26.80;37.80
32815;DHT22;19165;48.182;16.374;2022-09-01T07:34:55;27.00;37.30
32815;DHT22;19165;48.182;16.374;2022-09-01T07:37:21;27.00;37.30
32815;DHT22;19165;48.182;16.374;2022-09-01T07:39:49;27.10;36.90
32815;DHT22;19165;48.182;16.374;2022-09-01T07:42:42;27.40;36.40
32815;DHT22;19165;48.182;16.374;2022-09-01T07:45:23;27.60;35.60
32815;DHT22;19165;48.182;16.374;2022-09-01T07:48:01;27.60;35.60
32815;DHT22;19165;48.182;16.374;2022-09-01T07:50:35;27.80;35.30
32815;DHT22;19165;48.182;16.374;2022-09-01T07:53:02;28.00;34.90
32815;DHT22;19165;48.182;16.374;2022-09-01T07:55:28;28.10;34.30
32815;DHT22;19165;48.182;16.374;2022-09-01T07:57:56;28.20;33.70
32815;DHT22;19165;48.182;16.374;2022-09-01T08:00:23;28.40;33.40
32815;DHT22;19165;48.182;16.374;2022-09-01T08:02:55;28.60;32.90
32815;DHT22;19165;48.182;16.374;2022-09-01T08:05:21;28.70;32.60
32815;DHT22;19165;48.182;16.374;2022-09-01T08:07:51;29.00;32.00
32815;DHT22;19165;48.182;16.374;2022-09-01T08:10:18;29.10;31.90
32815;DHT22;19165;48.182;16.374;2022-09-01T08:12:44;29.30;31.60
32815;DHT22;19165;48.182;16.374;2022-09-01T08:15:11;29.50;31.20
32815;DHT22;19165;48.182;16.374;2022-09-01T08:17:38;29.80;30.60
32815;DHT22;19165;48.182;16.374;2022-09-01T08:20:09;30.00;29.80
32815;DHT22;19165;48.182;16.374;2022-09-01T08:22:47;30.20;28.90
32815;DHT22;19165;48.182;16.374;2022-09-01T08:25:18;30.20;28.30
32815;DHT22;19165;48.182;16.374;2022-09-01T08:27:47;30.30;28.30
32815;DHT22;19165;48.182;16.374;2022-09-01T08:30:14;30.50;28.20
32815;DHT22;19165;48.182;16.374;2022-09-01T08:32:41;30.80;28.00
32815;DHT22;19165;48.182;16.374;2022-09-01T08:35:08;30.80;27.70
32815;DHT22;19165;48.182;16.374;2022-09-01T08:37:34;30.70;27.60
32815;DHT22;19165;48.182;16.374;2022-09-01T08:40:01;30.90;27.50
32815;DHT22;19165;48.182;16.374;2022-09-01T08:42:41;31.30;26.90
32815;DHT22;19165;48.182;16.374;2022-09-01T08:45:14;31.70;26.80
32815;DHT22;19165;48.182;16.374;2022-09-01T08:47:45;32.00;26.60
32815;DHT22;19165;48.182;16.374;2022-09-01T08:50:12;32.10;26.00
32815;DHT22;19165;48.182;16.374;2022-09-01T08:53:02;32.50;25.90
32815;DHT22;19165;48.182;16.374;2022-09-01T08:55:36;32.90;25.20
32815;DHT22;19165;48.182;16.374;2022-09-01T08:58:05;33.30;24.80
32815;DHT22;19165;48.182;16.374;2022-09-01T09:01:00;33.60;24.60
32815;DHT22;19165;48.182;16.374;2022-09-01T09:03:35;34.30;23.90
32815;DHT22;19165;48.182;16.374;2022-09-01T09:06:11;34.80;23.30
32815;DHT22;19165;48.182;16.374;2022-09-01T09:08:53;34.80;22.80
32815;DHT22;19165;48.182;16.374;2022-09-01T09:11:43;35.20;22.60
32815;DHT22;19165;48.182;16.374;2022-09-01T09:14:17;36.10;22.40
32815;DHT22;19165;48.182;16.374;2022-09-01T09:16:52;36.50;21.10
32815;DHT22;19165;48.182;16.374;2022-09-01T09:19:22;36.90;20.90
32815;DHT22;19165;48.182;16.374;2022-09-01T09:21:50;36.80;20.60
32815;DHT22;19165;48.182;16.374;2022-09-01T09:24:22;36.90;20.60
32815;DHT22;19165;48.182;16.374;2022-09-01T09:26:52;37.30;20.60
32815;DHT22;19165;48.182;16.374;2022-09-01T09:29:18;38.10;20.30
32815;DHT22;19165;48.182;16.374;2022-09-01T09:31:46;38.70;20.20
32815;DHT22;19165;48.182;16.374;2022-09-01T09:34:28;39.60;19.90
32815;DHT22;19165;48.182;16.374;2022-09-01T09:36:55;40.60;19.20
32815;DHT22;19165;48.182;16.374;2022-09-01T09:39:20;41.50;18.90
32815;DHT22;19165;48.182;16.374;2022-09-01T09:42:03;42.10;18.30
32815;DHT22;19165;48.182;16.374;2022-09-01T09:44:32;42.60;17.90
32815;DHT22;19165;48.182;16.374;2022-09-01T09:46:58;43.10;17.80
32815;DHT22;19165;48.182;16.374;2022-09-01T09:49:28;43.50;17.60
32815;DHT22;19165;48.182;16.374;2022-09-01T09:51:56;43.80;17.50
32815;DHT22;19165;48.182;16.374;2022-09-01T09:54:25;44.30;17.40
32815;DHT22;19165;48.182;16.374;2022-09-01T09:57:09;44.10;17.40
32815;DHT22;19165;48.182;16.374;2022-09-01T09:59:40;44.30;17.20
32815;DHT22;19165;48.182;16.374;2022-09-01T10:02:19;44.70;17.00
32815;DHT22;19165;48.182;16.374;2022-09-01T10:04:48;45.20;16.60
32815;DHT22;19165;48.182;16.374;2022-09-01T10:07:23;44.90;16.60
32815;DHT22;19165;48.182;16.374;2022-09-01T10:09:50;45.20;16.60
32815;DHT22;19165;48.182;16.374;2022-09-01T10:12:16;46.00;16.70
32815;DHT22;19165;48.182;16.374;2022-09-01T10:14:46;46.60;16.30
32815;DHT22;19165;48.182;16.374;2022-09-01T10:17:18;47.10;15.80
32815;DHT22;19165;48.182;16.374;2022-09-01T10:19:51;45.60;16.20
32815;DHT22;19165;48.182;16.374;2022-09-01T10:22:19;44.80;16.60
32815;DHT22;19165;48.182;16.374;2022-09-01T10:24:45;43.50;16.80
32815;DHT22;19165;48.182;16.374;2022-09-01T10:27:16;41.60;17.40
32815;DHT22;19165;48.182;16.374;2022-09-01T10:29:46;41.20;18.10
32815;DHT22;19165;48.182;16.374;2022-09-01T10:32:16;41.70;18.00
32815;DHT22;19165;48.182;16.374;2022-09-01T10:34:43;42.00;17.60
32815;DHT22;19165;48.182;16.374;2022-09-01T10:37:12;42.20;17.80
32815;DHT22;19165;48.182;16.374;2022-09-01T10:40:13;43.10;17.50
32815;DHT22;19165;48.182;16.374;2022-09-01T10:42:41;44.10;17.10
32815;DHT22;19165;48.182;16.374;2022-09-01T10:45:16;44.80;16.80
32815;DHT22;19165;48.182;16.374;2022-09-01T10:47:43;45.70;16.40
32815;DHT22;19165;48.182;16.374;2022-09-01T10:50:23;46.20;16.20
32815;DHT22;19165;48.182;16.374;2022-09-01T10:53:03;46.20;15.80
32815;DHT22;19165;48.182;16.374;2022-09-01T10:55:42;45.70;16.10
32815;DHT22;19165;48.182;16.374;2022-09-01T10:58:34;46.20;16.10
32815;DHT22;19165;48.182;16.374;2022-09-01T11:01:04;47.00;15.70
32815;DHT22;19165;48.182;16.374;2022-09-01T11:03:54;47.10;15.50
32815;DHT22;19165;48.182;16.374;2022-09-01T11:06:56;45.50;15.70
32815;DHT22;19165;48.182;16.374;2022-09-01T11:09:31;43.40;16.70
32815;DHT22;19165;48.182;16.374;2022-09-01T11:12:19;43.20;16.80
32815;DHT22;19165;48.182;16.374;2022-09-01T11:14:51;43.30;16.80
32815;DHT22;19165;48.182;16.374;2022-09-01T11:17:20;42.90;17.30
32815;DHT22;19165;48.182;16.374;2022-09-01T11:19:54;41.50;17.40
32815;DHT22;19165;48.182;16.374;2022-09-01T11:22:26;41.20;17.90
32815;DHT22;19165;48.182;16.374;2022-09-01T11:28:07;43.80;17.00
32815;DHT22;19165;48.182;16.374;2022-09-01T11:30:42;44.60;16.70
32815;DHT22;19165;48.182;16.374;2022-09-01T11:33:34;44.20;16.30
32815;DHT22;19165;48.182;16.374;2022-09-01T11:36:04;42.30;17.00
32815;DHT22;19165;48.182;16.374;2022-09-01T11:38:36;42.30;17.60
32815;DHT22;19165;48.182;16.374;2022-09-01T11:41:02;43.60;17.20
32815;DHT22;19165;48.182;16.374;2022-09-01T11:43:37;45.10;16.60
32815;DHT22;19165;48.182;16.374;2022-09-01T11:46:08;44.90;16.20
32815;DHT22;19165;48.182;16.374;2022-09-01T11:48:38;43.40;16.70
32815;DHT22;19165;48.182;16.374;2022-09-01T11:51:04;41.10;17.50
32815;DHT22;19165;48.182;16.374;2022-09-01T11:53:30;40.00;18.40
32815;DHT22;19165;48.182;16.374;2022-09-01T11:56:12;40.80;18.40
32815;DHT22;19165;48.182;16.374;2022-09-01T11:58:39;42.10;17.60
32815;DHT22;19165;48.182;16.374;2022-09-01T12:01:15;43.40;17.10
32815;DHT22;19165;48.182;16.374;2022-09-01T12:03:42;44.50;16.60
32815;DHT22;19165;48.182;16.374;2022-09-01T12:06:10;45.80;16.30
32815;DHT22;19165;48.182;16.374;2022-09-01T12:08:38;46.90;15.50
32815;DHT22;19165;48.182;16.374;2022-09-01T12:11:07;47.40;15.20
32815;DHT22;19165;48.182;16.374;2022-09-01T12:13:35;47.60;15.10
32815;DHT22;19165;48.182;16.374;2022-09-01T12:16:05;48.30;15.00
32815;DHT22;19165;48.182;16.374;2022-09-01T12:18:33;49.20;14.60
32815;DHT22;19165;48.182;16.374;2022-09-01T12:21:03;50.10;14.30
32815;DHT22;19165;48.182;16.374;2022-09-01T12:23:31;49.10;14.20
32815;DHT22;19165;48.182;16.374;2022-09-01T12:25:59;47.90;14.60
32815;DHT22;19165;48.182;16.374;2022-09-01T12:28:27;47.90;14.90
32815;DHT22;19165;48.182;16.374;2022-09-01T12:30:56;46.90;15.10
32815;DHT22;19165;48.182;16.374;2022-09-01T12:33:25;45.30;15.60
32815;DHT22;19165;48.182;16.374;2022-09-01T12:36:14;43.10;16.30
32815;DHT22;19165;48.182;16.374;2022-09-01T12:38:41;41.00;17.30
32815;DHT22;19165;48.182;16.374;2022-09-01T12:41:22;39.30;18.00
32815;DHT22;19165;48.182;16.374;2022-09-01T12:43:48;38.10;18.80
32815;DHT22;19165;48.182;16.374;2022-09-01T12:46:41;37.20;19.00
32815;DHT22;19165;48.182;16.374;2022-09-01T12:49:21;36.70;19.70
32815;DHT22;19165;48.182;16.374;2022-09-01T12:52:05;38.80;19.30
32815;DHT22;19165;48.182;16.374;2022-09-01T12:54:31;41.00;18.20
32815;DHT22;19165;48.182;16.374;2022-09-01T12:56:57;42.90;17.40
32815;DHT22;19165;48.182;16.374;2022-09-01T12:59:25;44.50;16.40
32815;DHT22;19165;48.182;16.374;2022-09-01T13:01:51;45.90;16.00
32815;DHT22;19165;48.182;16.374;2022-09-01T13:04:26;47.50;15.60
32815;DHT22;19165;48.182;16.374;2022-09-01T13:06:58;48.80;14.90
32815;DHT22;19165;48.182;16.374;2022-09-01T13:09:24;49.10;14.50
32815;DHT22;19165;48.182;16.374;2022-09-01T13:11:50;48.90;14.00
32815;DHT22;19165;48.182;16.374;2022-09-01T13:14:17;49.00;14.20
32815;DHT22;19165;48.182;16.374;2022-09-01T13:16:43;50.00;14.30
32815;DHT22;19165;48.182;16.374;2022-09-01T13:19:09;50.80;14.10
32815;DHT22;19165;48.182;16.374;2022-09-01T13:21:38;51.00;14.00
32815;DHT22;19165;48.182;16.374;2022-09-01T13:24:05;50.40;14.10
32815;DHT22;19165;48.182;16.374;2022-09-01T13:26:32;48.30;14.00
32815;DHT22;19165;48.182;16.374;2022-09-01T13:28:58;45.90;14.60
32815;DHT22;19165;48.182;16.374;2022-09-01T13:31:24;43.90;15.40
32815;DHT22;19165;48.182;16.374;2022-09-01T13:33:50;42.50;16.00
32815;DHT22;19165;48.182;16.374;2022-09-01T13:36:17;41.10;16.50
32815;DHT22;19165;48.182;16.374;2022-09-01T13:38:45;41.00;17.20
32815;DHT22;19165;48.182;16.374;2022-09-01T13:41:11;42.30;17.00
32815;DHT22;19165;48.182;16.374;2022-09-01T13:43:38;44.20;16.50
32815;DHT22;19165;48.182;16.374;2022-09-01T13:46:05;46.00;15.80
32815;DHT22;19165;48.182;16.374;2022-09-01T13:48:30;47.40;15.00
32815;DHT22;19165;48.182;16.374;2022-09-01T13:50:59;46.70;14.60
32815;DHT22;19165;48.182;16.374;2022-09-01T13:53:26;44.70;14.90
32815;DHT22;19165;48.182;16.374;2022-09-01T13:55:53;42.40;15.50
32815;DHT22;19165;48.182;16.374;2022-09-01T13:58:19;40.30;16.80
32815;DHT22;19165;48.182;16.374;2022-09-01T14:00:46;38.50;17.50
32815;DHT22;19165;48.182;16.374;2022-09-01T14:03:15;37.40;18.30
32815;DHT22;19165;48.182;16.374;2022-09-01T14:05:44;36.80;18.70
32815;DHT22;19165;48.182;16.374;2022-09-01T14:08:12;36.80;19.00
32815;DHT22;19165;48.182;16.374;2022-09-01T14:10:41;38.10;18.80
32815;DHT22;19165;48.182;16.374;2022-09-01T14:13:10;40.00;18.10
32815;DHT22;19165;48.182;16.374;2022-09-01T14:15:36;40.80;17.50
32815;DHT22;19165;48.182;16.374;2022-09-01T14:18:02;41.00;17.40
32815;DHT22;19165;48.182;16.374;2022-09-01T14:20:31;41.30;17.20
32815;DHT22;19165;48.182;16.374;2022-09-01T14:22:57;42.10;17.10
32815;DHT22;19165;48.182;16.374;2022-09-01T14:25:24;43.40;16.70
32815;DHT22;19165;48.182;16.374;2022-09-01T14:27:50;44.80;16.10
32815;DHT22;19165;48.182;16.374;2022-09-01T14:30:21;46.10;15.60
32815;DHT22;19165;48.182;16.374;2022-09-01T14:32:47;47.20;15.30
32815;DHT22;19165;48.182;16.374;2022-09-01T14:35:14;48.40;15.00
32815;DHT22;19165;48.182;16.374;2022-09-01T14:37:40;49.30;14.60
32815;DHT22;19165;48.182;16.374;2022-09-01T14:40:09;49.90;14.40
32815;DHT22;19165;48.182;16.374;2022-09-01T14:42:35;50.50;14.00
32815;DHT22;19165;48.182;16.374;2022-09-01T14:45:02;50.80;13.30
32815;DHT22;19165;48.182;16.374;2022-09-01T14:47:30;50.40;13.40
32815;DHT22;19165;48.182;16.374;2022-09-01T14:49:56;50.00;13.40
32815;DHT22;19165;48.182;16.374;2022-09-01T14:52:22;50.10;14.00
32815;DHT22;19165;48.182;16.374;2022-09-01T14:54:48;49.80;13.40
32815;DHT22;19165;48.182;16.374;2022-09-01T14:57:14;50.00;13.40
32815;DHT22;19165;48.182;16.374;2022-09-01T14:59:41;49.40;13.10
32815;DHT22;19165;48.182;16.374;2022-09-01T15:02:07;49.10;13.10
32815;DHT22;19165;48.182;16.374;2022-09-01T15:04:35;48.90;13.10
32815;DHT22;19165;48.182;16.374;2022-09-01T15:07:01;48.90;13.20
32815;DHT22;19165;48.182;16.374;2022-09-01T15:09:31;48.80;13.30
32815;DHT22;19165;48.182;16.374;2022-09-01T15:11:57;47.50;13.50
32815;DHT22;19165;48.182;16.374;2022-09-01T15:14:23;47.20;13.80
32815;DHT22;19165;48.182;16.374;2022-09-01T15:16:49;46.90;14.00
32815;DHT22;19165;48.182;16.374;2022-09-01T15:19:16;46.50;14.20
32815;DHT22;19165;48.182;16.374;2022-09-01T15:21:45;45.70;14.40
32815;DHT22;19165;48.182;16.374;2022-09-01T15:24:11;44.60;14.70
32815;DHT22;19165;48.182;16.374;2022-09-01T15:26:37;43.90;15.10
32815;DHT22;19165;48.182;16.374;2022-09-01T15:29:05;42.90;15.30
32815;DHT22;19165;48.182;16.374;2022-09-01T15:31:38;42.10;15.70
32815;DHT22;19165;48.182;16.374;2022-09-01T15:34:05;41.70;15.90
32815;DHT22;19165;48.182;16.374;2022-09-01T15:36:34;41.50;16.20